Time,TemperatureF,DewpointF,PressureIn,WindDirection,WindDirectionDegrees,WindSpeedMPH,WindSpeedGustMPH,Humidity,HourlyPrecipIn,Conditions,Clouds,dailyrainin,SoftwareType,DateUTC
2013-04-03 00:00:00,60.7,54.5,30.09,NNE,27,0.0,0.0,80,0.00,CLR,OVC,0.00,WeatherDisplay:10.37,2013-04-03 04:00:00,
2013-04-03 00:01:00,60.7,54.5,30.09,NNE,27,0.0,0.0,80,0.00,CLR,OVC,0.00,WeatherDisplay:10.37,2013-04-03 04:01:00,
2013-04-03 00:06:00,60.6,54.7,30.10,NNE,28,0.0,0.0,81,0.00,CLR,OVC,0.00,WeatherDisplay:10.37,2013-04-03 04:06:00,
2013-04-03 00:11:00,60.5,54.6,30.09,NNE,28,0.0,0.0,81,0.00,CLR,OVC,0.00,WeatherDisplay:10.37,2013-04-03 04:11:00,
2013-04-03 00:16:00,60.3,54.8,30.09,NNE,28,0.0,0.0,82,0.00,CLR,OVC,0.00,WeatherDisplay:10.37,2013-04-03 04:16:00,
2013-04-03 00:21:00,60.3,54.8,30.09,NNE,28,0.0,0.0,82,0.00,CLR,OVC,0.00,WeatherDisplay:10.37,2013-04-03 04:21:00,
2013-04-03 00:26:00,60.2,54.7,30.09,NNE,27,0.0,0.0,82,0.00,CLR,OVC,0.00,WeatherDisplay:10.37,2013-04-03 04:26:00,
2013-04-03 00:31:00,60.1,54.6,30.09,NNE,27,0.0,0.0,82,0.00,CLR,OVC,0.00,WeatherDisplay:10.37,2013-04-03 04:31:00,
2013-04-03 00:36:00,60.0,54.5,30.10,NNE,27,0.0,0.0,82,0.00,CLR,OVC,0.00,WeatherDisplay:10.37,2013-04-03 04:36:00,
2013-04-03 00:41:00,59.8,54.6,30.10,NNE,28,0.0,0.0,83,0.00,CLR,OVC,0.00,WeatherDisplay:10.37,2013-04-03 04:41:00,
2013-04-03 00:46:00,59.5,54.3,30.10,NNE,28,0.0,0.0,83,0.00,CLR,OVC,0.00,WeatherDisplay:10.37,2013-04-03 04:46:00,
2013-04-03 00:51:00,59.4,54.6,30.10,NNE,28,0.0,0.0,84,0.00,CLR,OVC,0.00,WeatherDisplay:10.37,2013-04-03 04:51:00,
2013-04-03 00:56:00,59.2,54.4,30.10,NNE,28,0.0,0.0,84,0.00,CLR,OVC,0.00,WeatherDisplay:10.37,2013-04-03 04:56:00,
2013-04-03 01:01:00,59.0,54.2,30.09,NNE,28,0.0,0.0,84,0.00,CLR,OVC,0.00,WeatherDisplay:10.37,2013-04-03 05:01:00,
2013-04-03 01:06:00,58.9,54.4,30.09,NNE,28,0.0,0.0,85,0.00,CLR,OVC,0.00,WeatherDisplay:10.37,2013-04-03 05:06:00,
2013-04-03 01:11:00,58.6,54.1,30.10,NNE,27,0.0,0.0,85,0.00,CLR,OVC,0.00,WeatherDisplay:10.37,2013-04-03 05:11:00,
2013-04-03 01:16:00,58.3,53.8,30.10,NNE,27,0.0,0.0,85,0.00,CLR,OVC,0.00,WeatherDisplay:10.37,2013-04-03 05:16:00,
2013-04-03 01:21:00,58.1,53.6,30.10,NNE,28,0.0,0.0,85,0.00,CLR,OVC,0.00,WeatherDisplay:10.37,2013-04-03 05:21:00,
2013-04-03 01:26:00,57.9,53.4,30.09,NNE,28,0.0,0.0,85,0.00,CLR,OVC,0.00,WeatherDisplay:10.37,2013-04-03 05:26:00,
2013-04-03 01:31:00,57.9,53.4,30.09,NNE,27,0.0,0.0,85,0.00,CLR,OVC,0.00,WeatherDisplay:10.37,2013-04-03 05:31:00,
2013-04-03 01:36:00,57.8,53.6,30.08,NNE,28,0.0,0.0,86,0.00,CLR,OVC,0.00,WeatherDisplay:10.37,2013-04-03 05:36:00,
2013-04-03 01:41:00,57.6,53.4,30.08,NNE,27,0.0,0.0,86,0.00,CLR,OVC,0.00,WeatherDisplay:10.37,2013-04-03 05:41:00,
2013-04-03 01:46:00,57.5,53.3,30.08,NNE,27,0.0,0.0,86,0.00,CLR,OVC,0.00,WeatherDisplay:10.37,2013-04-03 05:46:00,
2013-04-03 01:51:00,57.3,53.1,30.09,NNE,28,0.0,0.0,86,0.00,CLR,OVC,0.00,WeatherDisplay:10.37,2013-04-03 05:51:00,
2013-04-03 01:56:00,57.3,53.1,30.08,NNE,28,0.0,0.0,86,0.00,CLR,OVC,0.00,WeatherDisplay:10.37,2013-04-03 05:56:00,
2013-04-03 02:01:00,57.3,53.1,30.08,NNE,27,0.0,0.0,86,0.00,CLR,OVC,0.00,WeatherDisplay:10.37,2013-04-03 06:01:00,
2013-04-03 02:06:00,57.3,53.1,30.07,NNE,28,0.0,0.0,86,0.00,CLR,OVC,0.00,WeatherDisplay:10.37,2013-04-03 06:06:00,
2013-04-03 02:11:00,57.2,53.0,30.07,NNE,28,0.0,0.0,86,0.00,CLR,OVC,0.00,WeatherDisplay:10.37,2013-04-03 06:11:00,
2013-04-03 02:16:00,57.0,52.9,30.07,NNE,28,0.0,0.0,86,0.00,CLR,OVC,0.00,WeatherDisplay:10.37,2013-04-03 06:16:00,
2013-04-03 02:21:00,56.8,53.0,30.07,NNE,27,0.0,0.0,87,0.00,CLR,OVC,0.00,WeatherDisplay:10.37,2013-04-03 06:21:00,
2013-04-03 02:26:00,56.8,53.0,30.07,NNE,28,0.0,0.0,87,0.00,CLR,OVC,0.00,WeatherDisplay:10.37,2013-04-03 06:26:00,
2013-04-03 02:31:00,56.8,53.0,30.07,NNE,28,0.0,0.0,87,0.00,CLR,OVC,0.00,WeatherDisplay:10.37,2013-04-03 06:31:00,
2013-04-03 02:36:00,56.8,53.0,30.07,NNE,28,0.0,0.0,87,0.00,CLR,OVC,0.00,WeatherDisplay:10.37,2013-04-03 06:36:00,
2013-04-03 02:41:00,56.8,53.0,30.06,NNE,28,0.0,0.0,87,0.00,CLR,OVC,0.00,WeatherDisplay:10.37,2013-04-03 06:41:00,
2013-04-03 02:46:00,56.7,52.9,30.06,NNE,27,0.0,0.0,87,0.00,CLR,OVC,0.00,WeatherDisplay:10.37,2013-04-03 06:46:00,
2013-04-03 02:51:00,56.7,52.9,30.07,NNE,27,0.0,0.0,87,0.00,CLR,OVC,0.00,WeatherDisplay:10.37,2013-04-03 06:51:00,
2013-04-03 02:56:00,56.6,52.8,30.07,NNE,28,0.0,0.0,87,0.00,CLR,OVC,0.00,WeatherDisplay:10.37,2013-04-03 06:56:00,
2013-04-03 03:01:00,56.6,52.8,30.07,NNE,28,0.0,0.0,87,0.00,CLR,OVC,0.00,WeatherDisplay:10.37,2013-04-03 07:01:00,
2013-04-03 03:06:00,56.6,52.8,30.07,NNE,28,0.0,0.0,87,0.00,CLR,OVC,0.00,WeatherDisplay:10.37,2013-04-03 07:06:00,
2013-04-03 03:11:00,56.6,52.8,30.07,NNE,28,0.0,0.0,87,0.00,CLR,OVC,0.00,WeatherDisplay:10.37,2013-04-03 07:11:00,
2013-04-03 03:16:00,56.6,52.8,30.06,NNE,27,0.0,0.0,87,0.00,CLR,OVC,0.00,WeatherDisplay:10.37,2013-04-03 07:16:00,
2013-04-03 03:21:00,56.5,52.7,30.06,NNE,28,0.0,0.0,87,0.00,CLR,OVC,0.00,WeatherDisplay:10.37,2013-04-03 07:21:00,
2013-04-03 03:26:00,56.3,52.5,30.05,NNE,27,0.0,0.0,87,0.00,CLR,OVC,0.00,WeatherDisplay:10.37,2013-04-03 07:26:00,
2013-04-03 03:31:00,56.2,52.7,30.05,NNE,28,0.0,0.0,88,0.00,CLR,OVC,0.00,WeatherDisplay:10.37,2013-04-03 07:31:00,
2013-04-03 03:36:00,56.5,53.0,30.05,NNE,27,1.1,0.0,88,0.00,CLR,OVC,0.00,WeatherDisplay:10.37,2013-04-03 07:36:00,
2013-04-03 03:41:00,56.5,53.0,30.05,NNE,27,0.0,0.0,88,0.00,CLR,OVC,0.00,WeatherDisplay:10.37,2013-04-03 07:41:00,
2013-04-03 03:46:00,56.3,52.8,30.05,NNE,28,0.0,0.0,88,0.00,CLR,OVC,0.00,WeatherDisplay:10.37,2013-04-03 07:46:00,
2013-04-03 03:51:00,56.4,52.9,30.04,NNE,27,0.0,0.0,88,0.00,CLR,OVC,0.00,WeatherDisplay:10.37,2013-04-03 07:51:00,
2013-04-03 03:56:00,56.5,53.0,30.04,NNE,27,0.0,0.0,88,0.00,CLR,OVC,0.00,WeatherDisplay:10.37,2013-04-03 07:56:00,
2013-04-03 04:01:00,56.5,53.3,30.04,NNE,27,0.0,0.0,89,0.00,CLR,OVC,0.00,WeatherDisplay:10.37,2013-04-03 08:01:00,
2013-04-03 04:06:00,56.2,52.7,30.04,NNE,27,0.0,0.0,88,0.00,CLR,OVC,0.00,WeatherDisplay:10.37,2013-04-03 08:06:00,
2013-04-03 04:11:00,56.1,52.6,30.04,NNE,28,0.0,0.0,88,0.00,CLR,OVC,0.00,WeatherDisplay:10.37,2013-04-03 08:11:00,
2013-04-03 04:16:00,56.1,52.6,30.04,NNE,28,0.0,0.0,88,0.00,CLR,OVC,0.00,WeatherDisplay:10.37,2013-04-03 08:16:00,
2013-04-03 04:21:00,56.0,52.5,30.04,NNE,27,0.0,0.0,88,0.00,CLR,OVC,0.00,WeatherDisplay:10.37,2013-04-03 08:21:00,
2013-04-03 04:26:00,55.9,52.4,30.03,NNE,28,0.0,0.0,88,0.00,CLR,OVC,0.00,WeatherDisplay:10.37,2013-04-03 08:26:00,
2013-04-03 04:31:00,55.8,52.3,30.03,NNE,28,0.0,0.0,88,0.00,CLR,OVC,0.00,WeatherDisplay:10.37,2013-04-03 08:31:00,
2013-04-03 04:36:00,55.7,52.2,30.03,NNE,28,0.0,0.0,88,0.00,CLR,OVC,0.00,WeatherDisplay:10.37,2013-04-03 08:36:00,
2013-04-03 04:41:00,55.7,52.2,30.03,NNE,28,0.0,0.0,88,0.00,CLR,OVC,0.00,WeatherDisplay:10.37,2013-04-03 08:41:00,
2013-04-03 04:46:00,55.6,52.1,30.03,NNE,28,0.0,0.0,88,0.00,CLR,OVC,0.00,WeatherDisplay:10.37,2013-04-03 08:46:00,
2013-04-03 04:51:00,55.6,52.4,30.03,NNE,28,0.0,0.0,89,0.00,CLR,OVC,0.00,WeatherDisplay:10.37,2013-04-03 08:51:00,
2013-04-03 04:56:00,55.6,52.4,30.03,NNE,27,0.0,0.0,89,0.00,CLR,OVC,0.00,WeatherDisplay:10.37,2013-04-03 08:56:00,
2013-04-03 05:01:00,55.7,52.5,30.03,NNE,28,0.0,0.0,89,0.00,CLR,OVC,0.00,WeatherDisplay:10.37,2013-04-03 09:01:00,
2013-04-03 05:04:00,55.7,52.5,30.03,NNE,28,0.0,0.0,89,0.00,CLR,OVC,0.00,WeatherDisplay:10.37,2013-04-03 09:04:00,
2013-04-03 05:06:00,55.7,52.5,30.03,NNE,28,0.0,0.0,89,0.00,CLR,OVC,0.00,WeatherDisplay:10.37,2013-04-03 09:06:00,
2013-04-03 05:11:00,55.7,52.5,30.03,NNE,28,0.0,0.0,89,0.00,CLR,OVC,0.00,WeatherDisplay:10.37,2013-04-03 09:11:00,
2013-04-03 05:18:00,55.7,52.5,30.03,NNE,28,0.0,0.0,89,0.00,CLR,OVC,0.00,WeatherDisplay:10.37,2013-04-03 09:18:00,
2013-04-03 05:23:00,55.7,52.5,30.03,NNE,28,0.0,0.0,89,0.00,CLR,OVC,0.00,WeatherDisplay:10.37,2013-04-03 09:23:00,
2013-04-03 05:28:00,55.7,52.5,30.04,NNE,28,0.0,0.0,89,0.00,CLR,OVC,0.00,WeatherDisplay:10.37,2013-04-03 09:28:00,
2013-04-03 05:33:00,55.8,52.6,30.04,NNE,28,0.0,0.0,89,0.00,CLR,OVC,0.00,WeatherDisplay:10.37,2013-04-03 09:33:00,
2013-04-03 05:38:00,55.9,52.7,30.04,NNE,28,0.0,0.0,89,0.00,CLR,OVC,0.00,WeatherDisplay:10.37,2013-04-03 09:38:00,
2013-04-03 05:43:00,55.9,52.7,30.04,NNE,27,0.0,0.0,89,0.00,CLR,OVC,0.00,WeatherDisplay:10.37,2013-04-03 09:43:00,
2013-04-03 05:48:00,56.0,52.8,30.04,NNE,28,0.0,0.0,89,0.00,CLR,OVC,0.00,WeatherDisplay:10.37,2013-04-03 09:48:00,
2013-04-03 05:53:00,56.1,52.9,30.04,NNE,28,0.0,0.0,89,0.00,CLR,OVC,0.00,WeatherDisplay:10.37,2013-04-03 09:53:00,
2013-04-03 05:58:00,56.1,52.9,30.04,NNE,28,0.0,0.0,89,0.00,CLR,OVC,0.00,WeatherDisplay:10.37,2013-04-03 09:58:00,
2013-04-03 06:03:00,56.1,52.9,30.05,NNE,28,0.0,0.0,89,0.00,FEW,OVC,0.00,WeatherDisplay:10.37,2013-04-03 10:03:00,
2013-04-03 06:08:00,56.1,52.9,30.04,NNE,28,0.0,0.0,89,0.00,FEW,OVC,0.00,WeatherDisplay:10.37,2013-04-03 10:08:00,
2013-04-03 06:13:00,56.3,53.1,30.05,NNE,28,0.0,0.0,89,0.00,FEW,OVC,0.00,WeatherDisplay:10.37,2013-04-03 10:13:00,
2013-04-03 06:18:00,56.3,53.1,30.05,NNE,28,0.0,0.0,89,0.00,FEW,OVC,0.00,WeatherDisplay:10.37,2013-04-03 10:18:00,
2013-04-03 06:23:00,56.3,53.1,30.04,NNE,28,0.0,0.0,89,0.00,FEW,OVC,0.00,WeatherDisplay:10.37,2013-04-03 10:23:00,
2013-04-03 06:28:00,56.2,53.0,30.04,NNE,28,0.0,0.0,89,0.00,FEW,OVC,0.00,WeatherDisplay:10.37,2013-04-03 10:28:00,
2013-04-03 06:33:00,56.2,53.0,30.04,NNE,28,0.0,0.0,89,0.00,FEW,OVC,0.00,WeatherDisplay:10.37,2013-04-03 10:33:00,
2013-04-03 06:38:00,56.1,52.9,30.04,NNE,28,0.0,0.0,89,0.00,FEW,OVC,0.00,WeatherDisplay:10.37,2013-04-03 10:38:00,
2013-04-03 06:43:00,56.1,52.9,30.04,NNE,27,0.0,0.0,89,0.00,FEW,OVC,0.00,WeatherDisplay:10.37,2013-04-03 10:43:00,
2013-04-03 06:48:00,56.2,53.0,30.04,NNE,27,0.0,0.0,89,0.00,FEW,OVC,0.00,WeatherDisplay:10.37,2013-04-03 10:48:00,
2013-04-03 06:53:00,56.3,53.1,30.04,NNE,27,0.0,0.0,89,0.00,FEW,OVC,0.00,WeatherDisplay:10.37,2013-04-03 10:53:00,
2013-04-03 06:58:00,56.4,53.2,30.04,NNE,28,0.0,0.0,89,0.00,FEW,OVC,0.00,WeatherDisplay:10.37,2013-04-03 10:58:00,
2013-04-03 07:03:00,56.4,53.2,30.04,NNE,28,0.0,0.0,89,0.00,CLR,OVC,0.00,WeatherDisplay:10.37,2013-04-03 11:03:00,
2013-04-03 07:08:00,56.4,53.2,30.05,NNE,25,0.0,0.0,89,0.00,CLR,OVC,0.00,WeatherDisplay:10.37,2013-04-03 11:08:00,
2013-04-03 07:13:00,56.4,53.2,30.05,NNE,25,0.0,0.0,89,0.00,CLR,OVC,0.00,WeatherDisplay:10.37,2013-04-03 11:13:00,
2013-04-03 07:18:00,56.3,53.1,30.04,NNE,24,0.0,0.0,89,0.00,CLR,OVC,0.00,WeatherDisplay:10.37,2013-04-03 11:18:00,
2013-04-03 07:23:00,56.5,53.3,30.05,NNE,25,1.1,0.0,89,0.00,CLR,OVC,0.00,WeatherDisplay:10.37,2013-04-03 11:23:00,
2013-04-03 07:28:00,56.7,53.5,30.05,NNE,23,0.0,0.0,89,0.00,CLR,OVC,0.00,WeatherDisplay:10.37,2013-04-03 11:28:00,
2013-04-03 07:33:00,56.9,53.7,30.05,NNE,24,0.0,0.0,89,0.00,CLR,OVC,0.00,WeatherDisplay:10.37,2013-04-03 11:33:00,
2013-04-03 07:38:00,57.0,53.8,30.05,NNE,24,0.0,0.0,89,0.00,CLR,OVC,0.00,WeatherDisplay:10.37,2013-04-03 11:38:00,
2013-04-03 07:43:00,57.1,53.9,30.05,NNE,24,0.0,0.0,89,0.00,CLR,OVC,0.00,WeatherDisplay:10.37,2013-04-03 11:43:00,
2013-04-03 07:48:00,57.3,54.1,30.05,NNE,23,0.0,0.0,89,0.00,CLR,OVC,0.00,WeatherDisplay:10.37,2013-04-03 11:48:00,
2013-04-03 07:53:00,57.6,54.7,30.05,NNE,23,0.0,0.0,90,0.00,CLR,OVC,0.00,WeatherDisplay:10.37,2013-04-03 11:53:00,
2013-04-03 07:58:00,57.8,54.9,30.06,NNE,23,0.0,0.0,90,0.00,CLR,OVC,0.00,WeatherDisplay:10.37,2013-04-03 11:58:00,
2013-04-03 08:03:00,58.1,55.2,30.06,NNE,23,0.0,0.0,90,0.00,CLR,OVC,0.00,WeatherDisplay:10.37,2013-04-03 12:03:00,
2013-04-03 08:08:00,58.4,55.5,30.06,NNE,23,0.0,0.0,90,0.00,CLR,OVC,0.00,WeatherDisplay:10.37,2013-04-03 12:08:00,
2013-04-03 08:13:00,58.7,55.8,30.06,NNE,23,0.0,0.0,90,0.00,CLR,OVC,0.00,WeatherDisplay:10.37,2013-04-03 12:13:00,
2013-04-03 08:18:00,59.1,56.2,30.06,NNE,24,0.0,0.0,90,0.00,CLR,OVC,0.00,WeatherDisplay:10.37,2013-04-03 12:18:00,
2013-04-03 08:23:00,59.7,56.8,30.06,NNE,23,0.0,0.0,90,0.00,CLR,OVC,0.00,WeatherDisplay:10.37,2013-04-03 12:23:00,
2013-04-03 08:28:00,60.3,57.4,30.06,NNE,23,0.0,0.0,90,0.00,CLR,OVC,0.00,WeatherDisplay:10.37,2013-04-03 12:28:00,
2013-04-03 08:33:00,61.2,58.2,30.06,WNW,282,1.1,1.1,90,0.00,CLR,OVC,0.00,WeatherDisplay:10.37,2013-04-03 12:33:00,
2013-04-03 08:38:00,61.7,58.7,30.06,WNW,282,0.0,0.0,90,0.00,CLR,OVC,0.00,WeatherDisplay:10.37,2013-04-03 12:38:00,
2013-04-03 08:43:00,62.4,59.4,30.06,WNW,282,0.0,0.0,90,0.00,CLR,OVC,0.00,WeatherDisplay:10.37,2013-04-03 12:43:00,
2013-04-03 08:48:00,63.2,60.2,30.06,SSE,167,1.1,0.0,90,0.00,CLR,OVC,0.00,WeatherDisplay:10.37,2013-04-03 12:48:00,
2013-04-03 08:53:00,64.0,61.0,30.06,SSE,167,0.0,0.2,90,0.00,CLR,OVC,0.00,WeatherDisplay:10.37,2013-04-03 12:53:00,
2013-04-03 08:58:00,64.6,61.3,30.06,SSE,168,0.0,0.0,89,0.00,CLR,OVC,0.00,WeatherDisplay:10.37,2013-04-03 12:58:00,
2013-04-03 09:03:00,65.1,61.8,30.06,SW,220,0.0,0.0,89,0.00,CLR,OVC,0.00,WeatherDisplay:10.37,2013-04-03 13:03:00,
2013-04-03 09:08:00,65.8,62.1,30.06,SSW,208,1.1,0.0,88,0.00,CLR,OVC,0.00,WeatherDisplay:10.37,2013-04-03 13:08:00,
2013-04-03 09:13:00,66.5,62.5,30.06,SW,224,1.1,1.1,87,0.00,CLR,OVC,0.00,WeatherDisplay:10.37,2013-04-03 13:13:00,
2013-04-03 09:18:00,67.1,63.1,30.06,SW,223,0.0,0.0,87,0.00,CLR,OVC,0.00,WeatherDisplay:10.37,2013-04-03 13:18:00,
2013-04-03 09:23:00,67.9,63.6,30.06,South,187,2.0,2.0,86,0.00,CLR,OVC,0.00,WeatherDisplay:10.37,2013-04-03 13:23:00,
2013-04-03 09:28:00,69.0,64.0,30.06,South,191,0.0,0.0,84,0.00,CLR,OVC,0.00,WeatherDisplay:10.37,2013-04-03 13:28:00,
2013-04-03 09:33:00,70.1,64.7,30.06,SSW,211,1.1,1.1,83,0.00,CLR,OVC,0.00,WeatherDisplay:10.37,2013-04-03 13:33:00,
2013-04-03 09:38:00,70.8,64.7,30.07,SSE,165,2.3,0.0,81,0.00,CLR,OVC,0.00,WeatherDisplay:10.37,2013-04-03 13:38:00,
2013-04-03 09:43:00,71.2,64.7,30.07,WNW,286,0.0,0.0,80,0.00,CLR,OVC,0.00,WeatherDisplay:10.37,2013-04-03 13:43:00,
2013-04-03 09:48:00,71.9,64.7,30.07,SSE,162,3.4,3.4,78,0.00,CLR,OVC,0.00,WeatherDisplay:10.37,2013-04-03 13:48:00,
2013-04-03 09:53:00,72.6,64.6,30.07,SSE,166,6.9,6.9,76,0.00,CLR,OVC,0.00,WeatherDisplay:10.37,2013-04-03 13:53:00,
2013-04-03 09:58:00,73.2,65.2,30.07,SSE,161,3.4,3.4,76,0.00,CLR,OVC,0.00,WeatherDisplay:10.37,2013-04-03 13:58:00,
2013-04-03 10:03:00,73.6,64.8,30.07,SSE,157,3.4,3.4,74,0.00,CLR,OVC,0.00,WeatherDisplay:10.37,2013-04-03 14:03:00,
2013-04-03 10:08:00,74.0,65.2,30.06,SSE,166,4.6,4.6,74,0.00,CLR,OVC,0.00,WeatherDisplay:10.37,2013-04-03 14:08:00,
2013-04-03 10:13:00,74.3,65.1,30.06,South,170,3.0,3.0,73,0.00,CLR,OVC,0.00,WeatherDisplay:10.37,2013-04-03 14:13:00,
2013-04-03 10:18:00,74.5,65.3,30.06,South,170,3.4,3.4,73,0.00,CLR,OVC,0.00,WeatherDisplay:10.37,2013-04-03 14:18:00,
2013-04-03 10:19:00,74.6,65.4,30.06,SSE,154,2.3,2.7,73,0.00,CLR,OVC,0.00,WeatherDisplay:10.37,2013-04-03 14:19:00,
2013-04-03 10:23:00,74.6,65.4,30.06,SSE,154,2.3,2.7,73,0.00,CLR,OVC,0.00,WeatherDisplay:10.37,2013-04-03 14:23:00,
2013-04-03 10:28:00,74.6,65.4,30.06,SSE,154,2.3,2.7,73,0.00,CLR,OVC,0.00,WeatherDisplay:10.37,2013-04-03 14:28:00,
2013-04-03 10:34:00,75.1,65.5,30.05,SSE,165,8.0,8.0,72,0.00,CLR,OVC,0.00,WeatherDisplay:10.37,2013-04-03 14:34:00,
2013-04-03 10:39:00,75.4,65.7,30.05,South,170,5.0,5.0,72,0.00,CLR,OVC,0.00,WeatherDisplay:10.37,2013-04-03 14:39:00,
2013-04-03 10:44:00,75.8,66.1,30.06,SSE,167,2.3,2.3,72,0.00,CLR,OVC,0.00,WeatherDisplay:10.37,2013-04-03 14:44:00,
2013-04-03 10:49:00,76.4,65.9,30.06,SSE,154,4.6,4.6,70,0.00,CLR,OVC,0.00,WeatherDisplay:10.37,2013-04-03 14:49:00,
2013-04-03 10:54:00,76.6,66.1,30.05,South,170,4.6,4.6,70,0.00,CLR,OVC,0.00,WeatherDisplay:10.37,2013-04-03 14:54:00,
2013-04-03 10:59:00,76.8,66.3,30.05,SE,140,3.4,3.4,70,0.00,CLR,OVC,0.00,WeatherDisplay:10.37,2013-04-03 14:59:00,
2013-04-03 11:04:00,76.8,66.3,30.05,South,188,4.0,4.0,70,0.00,FEW,OVC,0.00,WeatherDisplay:10.37,2013-04-03 15:04:00,
2013-04-03 11:09:00,76.9,66.4,30.06,South,171,3.0,3.0,70,0.00,FEW,OVC,0.00,WeatherDisplay:10.37,2013-04-03 15:09:00,
2013-04-03 11:14:00,77.2,66.2,30.06,SSE,161,3.4,3.4,69,0.00,FEW,OVC,0.00,WeatherDisplay:10.37,2013-04-03 15:14:00,
2013-04-03 11:19:00,77.0,65.6,30.06,SSE,167,4.6,4.6,68,0.00,FEW,OVC,0.00,WeatherDisplay:10.37,2013-04-03 15:19:00,
2013-04-03 11:24:00,76.7,65.8,30.06,South,170,4.0,4.0,69,0.00,FEW,OVC,0.00,WeatherDisplay:10.37,2013-04-03 15:24:00,
2013-04-03 11:29:00,77.4,66.4,30.05,SSE,163,2.3,2.3,69,0.00,FEW,OVC,0.00,WeatherDisplay:10.37,2013-04-03 15:29:00,
2013-04-03 11:34:00,77.7,65.9,30.05,SSE,162,3.4,3.4,67,0.00,FEW,OVC,0.00,WeatherDisplay:10.37,2013-04-03 15:34:00,
2013-04-03 11:39:00,77.7,65.9,30.05,SSE,163,4.0,4.0,67,0.00,FEW,OVC,0.00,WeatherDisplay:10.37,2013-04-03 15:39:00,
2013-04-03 11:44:00,78.0,65.7,30.05,SSE,163,4.0,4.0,66,0.00,FEW,OVC,0.00,WeatherDisplay:10.37,2013-04-03 15:44:00,
2013-04-03 11:49:00,78.4,66.1,30.05,SSE,159,3.4,3.4,66,0.00,FEW,OVC,0.00,WeatherDisplay:10.37,2013-04-03 15:49:00,
2013-04-03 11:54:00,78.7,66.8,30.05,SE,144,3.4,3.4,67,0.00,FEW,OVC,0.00,WeatherDisplay:10.37,2013-04-03 15:54:00,
2013-04-03 11:59:00,78.6,65.4,30.04,SSE,156,4.6,4.6,64,0.00,FEW,OVC,0.00,WeatherDisplay:10.37,2013-04-03 15:59:00,
2013-04-03 12:04:00,78.5,65.8,30.04,South,175,3.4,3.4,65,0.00,SCT,OVC,0.00,WeatherDisplay:10.37,2013-04-03 16:04:00,
2013-04-03 12:09:00,78.8,66.0,30.04,SE,132,3.4,3.4,65,0.00,SCT,OVC,0.00,WeatherDisplay:10.37,2013-04-03 16:09:00,
2013-04-03 12:14:00,79.4,66.2,30.03,SSE,162,3.4,3.4,64,0.00,SCT,OVC,0.00,WeatherDisplay:10.37,2013-04-03 16:14:00,
2013-04-03 12:19:00,79.6,65.9,30.03,SSE,166,2.3,2.3,63,0.00,SCT,OVC,0.00,WeatherDisplay:10.37,2013-04-03 16:19:00,
2013-04-03 12:24:00,79.3,66.1,30.03,SW,214,1.1,1.1,64,0.00,SCT,OVC,0.00,WeatherDisplay:10.37,2013-04-03 16:24:00,
2013-04-03 12:29:00,79.0,65.8,30.03,SSE,166,3.4,3.4,64,0.00,SCT,OVC,0.00,WeatherDisplay:10.37,2013-04-03 16:29:00,
2013-04-03 12:34:00,79.2,66.0,30.03,WNW,299,1.1,1.1,64,0.00,SCT,OVC,0.00,WeatherDisplay:10.37,2013-04-03 16:34:00,
2013-04-03 12:39:00,79.1,65.9,30.03,SSE,165,3.4,3.4,64,0.00,SCT,OVC,0.00,WeatherDisplay:10.37,2013-04-03 16:39:00,
2013-04-03 12:44:00,79.4,66.2,30.03,South,177,2.3,2.3,64,0.00,SCT,OVC,0.00,WeatherDisplay:10.37,2013-04-03 16:44:00,
2013-04-03 12:49:00,80.2,66.0,30.03,SSE,163,4.0,4.0,62,0.00,SCT,OVC,0.00,WeatherDisplay:10.37,2013-04-03 16:49:00,
2013-04-03 12:54:00,80.7,66.5,30.03,SSE,164,3.4,3.4,62,0.00,SCT,OVC,0.00,WeatherDisplay:10.37,2013-04-03 16:54:00,
2013-04-03 12:59:00,80.9,66.2,30.03,South,171,3.4,3.4,61,0.00,SCT,OVC,0.00,WeatherDisplay:10.37,2013-04-03 16:59:00,
2013-04-03 13:04:00,81.0,65.8,30.03,South,178,3.4,3.4,60,0.00,SCT,OVC,0.00,WeatherDisplay:10.37,2013-04-03 17:04:00,
2013-04-03 13:09:00,80.9,66.7,30.02,South,176,3.4,3.4,62,0.00,SCT,OVC,0.00,WeatherDisplay:10.37,2013-04-03 17:09:00,
2013-04-03 13:14:00,80.8,66.1,30.02,South,169,2.3,2.3,61,0.00,SCT,OVC,0.00,WeatherDisplay:10.37,2013-04-03 17:14:00,
2013-04-03 13:19:00,80.9,65.2,30.01,SSE,159,4.6,4.6,59,0.00,CLR,OVC,0.00,WeatherDisplay:10.37,2013-04-03 17:19:00,
2013-04-03 13:24:00,80.8,64.6,30.01,SSE,161,1.1,1.1,58,0.00,CLR,OVC,0.00,WeatherDisplay:10.37,2013-04-03 17:24:00,
2013-04-03 13:29:00,80.8,65.1,30.01,SSE,161,2.0,2.0,59,0.00,CLR,OVC,0.00,WeatherDisplay:10.37,2013-04-03 17:29:00,
2013-04-03 13:34:00,81.2,65.0,30.01,SSE,162,3.4,3.4,58,0.00,CLR,OVC,0.00,WeatherDisplay:10.37,2013-04-03 17:34:00,
2013-04-03 13:39:00,81.8,65.6,30.00,SSE,160,3.4,3.4,58,0.00,CLR,OVC,0.00,WeatherDisplay:10.37,2013-04-03 17:39:00,
2013-04-03 13:44:00,82.1,65.9,30.01,South,179,1.1,1.1,58,0.00,CLR,OVC,0.00,WeatherDisplay:10.37,2013-04-03 17:44:00,
2013-04-03 13:49:00,82.2,66.0,30.01,South,176,1.1,1.1,58,0.00,CLR,OVC,0.00,WeatherDisplay:10.37,2013-04-03 17:49:00,
2013-04-03 13:54:00,82.1,65.9,30.01,South,189,2.3,2.3,58,0.00,CLR,OVC,0.00,WeatherDisplay:10.37,2013-04-03 17:54:00,
2013-04-03 13:59:00,81.8,65.1,30.01,South,189,3.4,3.4,57,0.00,CLR,OVC,0.00,WeatherDisplay:10.37,2013-04-03 17:59:00,
2013-04-03 14:04:00,81.9,66.6,30.00,South,187,1.1,1.1,60,0.00,CLR,OVC,0.00,WeatherDisplay:10.37,2013-04-03 18:04:00,
2013-04-03 14:09:00,82.0,66.3,30.00,NNE,21,2.3,2.3,59,0.00,CLR,OVC,0.00,WeatherDisplay:10.37,2013-04-03 18:09:00,
2013-04-03 14:14:00,81.7,66.5,30.00,SSW,206,2.3,2.3,60,0.00,CLR,OVC,0.00,WeatherDisplay:10.37,2013-04-03 18:14:00,
2013-04-03 14:19:00,81.3,66.1,30.00,ENE,76,1.1,1.1,60,0.00,CLR,OVC,0.00,WeatherDisplay:10.37,2013-04-03 18:19:00,
2013-04-03 14:24:00,81.1,66.4,29.99,NNE,28,2.0,2.0,61,0.00,CLR,OVC,0.00,WeatherDisplay:10.37,2013-04-03 18:24:00,
2013-04-03 14:29:00,80.9,66.2,30.00,South,171,3.0,3.0,61,0.00,CLR,OVC,0.00,WeatherDisplay:10.37,2013-04-03 18:29:00,
2013-04-03 14:34:00,80.9,66.2,29.99,South,176,1.1,1.1,61,0.00,CLR,OVC,0.00,WeatherDisplay:10.37,2013-04-03 18:34:00,
2013-04-03 14:39:00,80.9,66.2,30.00,SW,222,2.3,2.3,61,0.00,CLR,OVC,0.00,WeatherDisplay:10.37,2013-04-03 18:39:00,
2013-04-03 14:44:00,80.7,65.5,30.00,South,174,2.3,2.3,60,0.00,CLR,OVC,0.00,WeatherDisplay:10.37,2013-04-03 18:44:00,
2013-04-03 14:49:00,80.6,65.4,30.00,South,172,2.0,2.0,60,0.00,CLR,OVC,0.00,WeatherDisplay:10.37,2013-04-03 18:49:00,
2013-04-03 14:54:00,80.6,65.9,30.00,South,171,1.1,1.1,61,0.00,CLR,OVC,0.00,WeatherDisplay:10.37,2013-04-03 18:54:00,
2013-04-03 14:59:00,80.6,65.9,30.00,NE,56,1.1,1.1,61,0.00,CLR,OVC,0.00,WeatherDisplay:10.37,2013-04-03 18:59:00,
2013-04-03 15:04:00,80.4,65.7,30.00,NNE,13,1.1,1.1,61,0.00,CLR,OVC,0.00,WeatherDisplay:10.37,2013-04-03 19:04:00,
2013-04-03 15:09:00,80.3,66.1,30.01,NE,36,1.1,1.1,62,0.00,CLR,OVC,0.00,WeatherDisplay:10.37,2013-04-03 19:09:00,
2013-04-03 15:14:00,80.3,66.1,30.00,NNE,28,2.3,2.3,62,0.00,CLR,OVC,0.00,WeatherDisplay:10.37,2013-04-03 19:14:00,
2013-04-03 15:19:00,80.4,66.2,30.00,East,100,1.1,1.1,62,0.00,CLR,OVC,0.00,WeatherDisplay:10.37,2013-04-03 19:19:00,
2013-04-03 15:24:00,80.7,66.5,30.00,NNW,337,1.0,1.0,62,0.00,CLR,OVC,0.00,WeatherDisplay:10.37,2013-04-03 19:24:00,
2013-04-03 15:29:00,80.7,65.5,29.99,NE,34,3.4,3.4,60,0.00,CLR,OVC,0.00,WeatherDisplay:10.37,2013-04-03 19:29:00,
2013-04-03 15:34:00,80.7,66.0,29.99,NNE,30,0.0,0.0,61,0.00,CLR,OVC,0.00,WeatherDisplay:10.37,2013-04-03 19:34:00,
2013-04-03 15:39:00,80.7,66.0,29.99,NNE,28,0.0,0.0,61,0.00,CLR,OVC,0.00,WeatherDisplay:10.37,2013-04-03 19:39:00,
2013-04-03 15:55:00,80.1,65.0,29.98,WNW,289,3.0,3.0,60,0.00,CLR,OVC,0.00,WeatherDisplay:10.37,2013-04-03 19:55:00,
2013-04-03 16:00:00,79.9,64.8,29.98,SSE,161,2.3,2.3,60,0.00,CLR,OVC,0.00,WeatherDisplay:10.37,2013-04-03 20:00:00,
2013-04-03 16:05:00,79.8,64.7,29.97,South,183,1.1,1.1,60,0.00,BKN,OVC,0.00,WeatherDisplay:10.37,2013-04-03 20:05:00,
2013-04-03 16:10:00,79.6,64.5,29.97,SW,220,2.3,0.0,60,0.00,BKN,OVC,0.00,WeatherDisplay:10.37,2013-04-03 20:10:00,
2013-04-03 16:15:00,79.5,64.9,29.97,East,97,2.3,2.3,61,0.00,BKN,OVC,0.00,WeatherDisplay:10.37,2013-04-03 20:15:00,
2013-04-03 16:20:00,79.4,64.8,29.97,NNE,16,2.3,2.3,61,0.00,BKN,OVC,0.00,WeatherDisplay:10.37,2013-04-03 20:20:00,
2013-04-03 16:25:00,79.2,64.6,29.97,SSW,192,1.1,1.1,61,0.00,BKN,OVC,0.00,WeatherDisplay:10.37,2013-04-03 20:25:00,
2013-04-03 16:30:00,79.1,65.0,29.97,SSW,192,1.1,0.0,62,0.00,BKN,OVC,0.00,WeatherDisplay:10.37,2013-04-03 20:30:00,
2013-04-03 16:35:00,79.0,64.9,29.97,NW,322,1.1,0.0,62,0.00,BKN,OVC,0.00,WeatherDisplay:10.37,2013-04-03 20:35:00,
2013-04-03 16:40:00,79.0,64.4,29.98,SW,214,1.1,1.1,61,0.00,BKN,OVC,0.00,WeatherDisplay:10.37,2013-04-03 20:40:00,
2013-04-03 16:45:00,78.9,64.8,29.97,SSW,202,1.1,1.1,62,0.00,BKN,OVC,0.00,WeatherDisplay:10.37,2013-04-03 20:45:00,
2013-04-03 16:50:00,78.8,64.7,29.97,South,186,1.0,1.0,62,0.00,BKN,OVC,0.00,WeatherDisplay:10.37,2013-04-03 20:50:00,
2013-04-03 16:55:00,78.6,64.5,29.97,South,178,1.1,1.1,62,0.00,BKN,OVC,0.00,WeatherDisplay:10.37,2013-04-03 20:55:00,
2013-04-03 17:00:00,78.4,64.3,29.98,South,176,1.1,0.0,62,0.00,BKN,OVC,0.00,WeatherDisplay:10.37,2013-04-03 21:00:00,
2013-04-03 17:05:00,78.4,64.3,29.97,SW,219,0.0,0.3,62,0.00,BKN,OVC,0.00,WeatherDisplay:10.37,2013-04-03 21:05:00,
2013-04-03 17:10:00,78.4,63.4,29.97,SSW,192,1.1,1.1,60,0.00,BKN,OVC,0.00,WeatherDisplay:10.37,2013-04-03 21:10:00,
2013-04-03 17:15:00,78.4,63.4,29.97,SSW,211,1.1,1.1,60,0.00,BKN,OVC,0.00,WeatherDisplay:10.37,2013-04-03 21:15:00,
2013-04-03 17:20:00,78.5,63.5,29.97,SSW,201,1.1,1.1,60,0.00,CLR,OVC,0.00,WeatherDisplay:10.37,2013-04-03 21:20:00,
2013-04-03 17:25:00,78.4,63.4,29.97,SSW,202,0.0,0.7,60,0.00,CLR,OVC,0.00,WeatherDisplay:10.37,2013-04-03 21:25:00,
2013-04-03 17:30:00,78.4,62.9,29.98,South,180,2.3,2.3,59,0.00,CLR,OVC,0.00,WeatherDisplay:10.37,2013-04-03 21:30:00,
2013-04-03 17:35:00,78.3,62.8,29.97,SSE,166,2.3,2.3,59,0.00,CLR,OVC,0.00,WeatherDisplay:10.37,2013-04-03 21:35:00,
2013-04-03 17:40:00,78.2,62.2,29.98,SSE,163,3.0,3.0,58,0.00,CLR,OVC,0.00,WeatherDisplay:10.37,2013-04-03 21:40:00,
2013-04-03 17:45:00,78.1,62.1,29.98,South,170,1.1,1.1,58,0.00,CLR,OVC,0.00,WeatherDisplay:10.37,2013-04-03 21:45:00,
2013-04-03 17:50:00,78.0,62.5,29.98,South,177,0.0,0.0,59,0.00,CLR,OVC,0.00,WeatherDisplay:10.37,2013-04-03 21:50:00,
2013-04-03 17:55:00,77.7,62.7,29.98,South,181,1.1,0.0,60,0.00,CLR,OVC,0.00,WeatherDisplay:10.37,2013-04-03 21:55:00,
2013-04-03 18:00:00,77.4,61.9,29.98,SW,223,1.0,0.0,59,0.00,CLR,OVC,0.00,WeatherDisplay:10.37,2013-04-03 22:00:00,
2013-04-03 18:05:00,77.1,61.7,29.97,SSE,155,0.0,1.0,59,0.00,BKN,OVC,0.00,WeatherDisplay:10.37,2013-04-03 22:05:00,
2013-04-03 18:10:00,76.9,61.5,29.98,SSW,210,1.1,1.1,59,0.00,BKN,OVC,0.00,WeatherDisplay:10.37,2013-04-03 22:10:00,
2013-04-03 18:15:00,76.7,61.3,29.98,SSW,207,0.0,1.0,59,0.00,BKN,OVC,0.00,WeatherDisplay:10.37,2013-04-03 22:15:00,
2013-04-03 18:20:00,76.4,61.0,29.98,SSW,194,2.3,2.3,59,0.00,BKN,OVC,0.00,WeatherDisplay:10.37,2013-04-03 22:20:00,
2013-04-03 18:25:00,75.8,61.8,29.98,SSW,213,1.1,1.1,62,0.00,BKN,OVC,0.00,WeatherDisplay:10.37,2013-04-03 22:25:00,
2013-04-03 18:30:00,74.7,62.1,29.98,NW,319,0.0,0.3,65,0.00,BKN,OVC,0.00,WeatherDisplay:10.37,2013-04-03 22:30:00,
2013-04-03 18:35:00,73.8,62.6,29.98,NW,319,0.0,0.0,68,0.00,BKN,OVC,0.00,WeatherDisplay:10.37,2013-04-03 22:35:00,
2013-04-03 18:40:00,72.9,62.5,29.99,NW,319,1.1,1.1,70,0.00,BKN,OVC,0.00,WeatherDisplay:10.37,2013-04-03 22:40:00,
2013-04-03 18:45:00,72.0,62.9,30.00,NW,319,0.0,0.0,73,0.00,BKN,OVC,0.00,WeatherDisplay:10.37,2013-04-03 22:45:00,
2013-04-03 18:50:00,71.2,62.9,30.00,NW,319,0.0,0.0,75,0.00, +RA,OVC,0.00,WeatherDisplay:10.37,2013-04-03 22:50:00,
2013-04-03 18:55:00,69.9,63.4,29.99,NW,326,1.1,1.1,80,0.00, +RA,OVC,0.00,WeatherDisplay:10.37,2013-04-03 22:55:00,
2013-04-03 19:00:00,68.6,63.2,29.99,NNW,329,0.0,0.0,83,0.00, +RA,OVC,0.00,WeatherDisplay:10.37,2013-04-03 23:00:00,
2013-04-03 19:05:00,68.0,63.3,30.00,NNW,329,0.0,0.0,85,0.00, +RA,OVC,0.00,WeatherDisplay:10.37,2013-04-03 23:05:00,
2013-04-03 19:10:00,67.3,62.6,30.00,NNW,329,0.0,0.0,85,0.00, +RA,OVC,0.00,WeatherDisplay:10.37,2013-04-03 23:10:00,
2013-04-03 19:15:00,66.9,62.6,30.01,NNW,329,0.0,0.0,86,0.00, +RA,OVC,0.00,WeatherDisplay:10.37,2013-04-03 23:15:00,
2013-04-03 19:20:00,66.5,62.2,30.02,NW,324,0.0,0.0,86,0.00,OVC,OVC,0.00,WeatherDisplay:10.37,2013-04-03 23:20:00,
2013-04-03 19:25:00,66.4,62.4,30.01,NNW,327,0.0,0.0,87,0.00,OVC,OVC,0.00,WeatherDisplay:10.37,2013-04-03 23:25:00,
2013-04-03 19:30:00,66.3,62.6,30.02,NW,326,1.1,1.1,88,0.00,OVC,OVC,0.00,WeatherDisplay:10.37,2013-04-03 23:30:00,
2013-04-03 19:35:00,66.0,62.3,30.02,NW,326,0.0,0.0,88,0.00,OVC,OVC,0.00,WeatherDisplay:10.37,2013-04-03 23:35:00,
2013-04-03 19:40:00,66.0,62.3,30.02,NNW,347,1.1,1.1,88,0.00,OVC,OVC,0.00,WeatherDisplay:10.37,2013-04-03 23:40:00,
2013-04-03 19:45:00,65.8,62.1,30.02,North,355,1.1,1.1,88,0.00,OVC,OVC,0.00,WeatherDisplay:10.37,2013-04-03 23:45:00,
2013-04-03 19:50:00,65.7,62.0,30.03,NNE,25,2.3,2.3,88,0.00,OVC,OVC,0.00,WeatherDisplay:10.37,2013-04-03 23:50:00,
2013-04-03 19:55:00,65.6,62.3,30.02,NNE,14,3.4,3.4,89,0.02,RA,OVC,0.02,WeatherDisplay:10.37,2013-04-03 23:55:00,
2013-04-03 20:00:00,65.5,61.9,30.01,NNE,22,3.4,3.4,88,0.02,RA,OVC,0.02,WeatherDisplay:10.37,2013-04-04 00:00:00,
2013-04-03 20:05:00,65.5,61.9,30.02,NE,40,3.4,3.4,88,0.03,RA,OVC,0.03,WeatherDisplay:10.37,2013-04-04 00:05:00,
2013-04-03 20:10:00,65.4,61.8,30.01,North,11,4.6,4.6,88,0.03,RA,OVC,0.03,WeatherDisplay:10.37,2013-04-04 00:10:00,
2013-04-03 20:15:00,65.2,61.6,30.01,East,92,1.1,1.1,88,0.03,FEW,OVC,0.03,WeatherDisplay:10.37,2013-04-04 00:15:00,
2013-04-03 20:20:00,65.2,61.6,30.02,ESE,104,0.0,0.0,88,0.03,FEW,OVC,0.03,WeatherDisplay:10.37,2013-04-04 00:20:00,
2013-04-03 20:25:00,65.0,61.4,30.02,ESE,104,0.0,0.0,88,0.03,FEW,OVC,0.03,WeatherDisplay:10.37,2013-04-04 00:25:00,
2013-04-03 20:30:00,64.9,61.3,30.02,East,91,0.0,1.0,88,0.00,FEW,OVC,0.03,WeatherDisplay:10.37,2013-04-04 00:30:00,
2013-04-03 20:35:00,64.9,61.3,30.02,North,11,1.1,0.0,88,0.03,FEW,OVC,0.03,WeatherDisplay:10.37,2013-04-04 00:35:00,
2013-04-03 20:40:00,64.8,61.5,30.02,NNE,15,1.1,1.1,89,0.03,FEW,OVC,0.03,WeatherDisplay:10.37,2013-04-04 00:40:00,
2013-04-03 20:45:00,64.8,61.5,30.03,NNE,15,0.0,0.0,89,0.03,FEW,OVC,0.03,WeatherDisplay:10.37,2013-04-04 00:45:00,
2013-04-03 20:50:00,64.8,61.5,30.04,NNE,15,0.0,0.0,89,0.03,FEW,OVC,0.03,WeatherDisplay:10.37,2013-04-04 00:50:00,
2013-04-03 20:55:00,64.6,61.3,30.04,East,89,1.1,1.1,89,0.02,RA,OVC,0.04,WeatherDisplay:10.37,2013-04-04 00:55:00,
2013-04-03 20:59:00,64.5,61.2,30.03,East,87,1.1,1.1,89,0.03,RA,OVC,0.05,WeatherDisplay:10.37,2013-04-04 00:59:00,
2013-04-03 21:00:00,64.5,61.2,30.03,East,87,1.1,1.1,89,0.03,RA,OVC,0.05,WeatherDisplay:10.37,2013-04-04 01:00:00,
2013-04-03 21:05:00,64.5,61.2,30.03,East,87,1.1,1.1,89,0.03,RA,OVC,0.05,WeatherDisplay:10.37,2013-04-04 01:05:00,
2013-04-03 21:10:00,64.2,60.9,30.02,NE,44,2.0,2.0,89,0.05,RA,OVC,0.09,WeatherDisplay:10.37,2013-04-04 01:10:00,
2013-04-03 21:15:00,64.1,60.8,30.01,NNE,29,1.1,1.1,89,0.06,RA,OVC,0.09,WeatherDisplay:10.37,2013-04-04 01:15:00,
2013-04-03 21:20:00,64.2,60.9,30.02,NE,52,1.1,1.1,89,0.06,RA,OVC,0.09,WeatherDisplay:10.37,2013-04-04 01:20:00,
2013-04-03 21:25:00,64.3,61.0,30.03,SW,219,0.0,0.0,89,0.06,FEW,OVC,0.09,WeatherDisplay:10.37,2013-04-04 01:25:00,
2013-04-03 21:30:00,64.3,61.0,30.02,SW,218,1.0,0.0,89,0.07,RA,OVC,0.10,WeatherDisplay:10.37,2013-04-04 01:30:00,
2013-04-03 21:35:00,64.4,61.1,30.02,NE,35,1.1,1.1,89,0.07,RA,OVC,0.10,WeatherDisplay:10.37,2013-04-04 01:35:00,
2013-04-03 21:40:00,64.4,61.1,30.02,NE,35,0.0,0.0,89,0.07,FEW,OVC,0.10,WeatherDisplay:10.37,2013-04-04 01:40:00,
2013-04-03 21:45:00,64.4,61.1,30.03,NNE,33,0.0,0.0,89,0.07,FEW,OVC,0.10,WeatherDisplay:10.37,2013-04-04 01:45:00,
2013-04-03 21:50:00,64.5,61.2,30.04,NNE,29,0.0,0.0,89,0.06,FEW,OVC,0.10,WeatherDisplay:10.37,2013-04-04 01:50:00,
2013-04-03 21:55:00,64.6,61.3,30.05,NNE,29,0.0,0.0,89,0.05,FEW,OVC,0.10,WeatherDisplay:10.37,2013-04-04 01:55:00,
2013-04-03 22:00:00,64.8,61.5,30.05,NNE,29,0.0,0.0,89,0.06,FEW,OVC,0.10,WeatherDisplay:10.37,2013-04-04 02:00:00,
2013-04-03 22:05:00,64.9,61.6,30.05,NNE,28,0.0,0.0,89,0.04,SCT,OVC,0.10,WeatherDisplay:10.37,2013-04-04 02:05:00,
2013-04-03 22:10:00,65.0,61.7,30.05,NNE,29,0.0,0.0,89,0.02,SCT,OVC,0.10,WeatherDisplay:10.37,2013-04-04 02:10:00,
2013-04-03 22:15:00,65.4,62.1,30.05,NNE,19,1.1,1.1,89,0.01,SCT,OVC,0.10,WeatherDisplay:10.37,2013-04-04 02:15:00,
2013-04-03 22:20:00,65.5,62.5,30.05,NNE,22,0.0,0.0,90,0.01,SCT,OVC,0.10,WeatherDisplay:10.37,2013-04-04 02:20:00,
2013-04-03 22:25:00,65.7,62.7,30.05,NNE,20,0.0,0.0,90,0.01,SCT,OVC,0.10,WeatherDisplay:10.37,2013-04-04 02:25:00,
2013-04-03 22:30:00,65.7,62.7,30.05,NNE,22,0.0,0.0,90,0.00,SCT,OVC,0.10,WeatherDisplay:10.37,2013-04-04 02:30:00,
2013-04-03 22:35:00,66.1,63.1,30.05,North,10,1.1,1.1,90,0.00,SCT,OVC,0.10,WeatherDisplay:10.37,2013-04-04 02:35:00,
2013-04-03 22:40:00,66.4,63.4,30.04,NNE,17,0.0,0.0,90,0.00,SCT,OVC,0.10,WeatherDisplay:10.37,2013-04-04 02:40:00,
2013-04-03 22:45:00,66.5,63.5,30.04,NNE,16,0.0,0.1,90,0.00,SCT,OVC,0.10,WeatherDisplay:10.37,2013-04-04 02:45:00,
2013-04-03 22:50:00,66.7,63.7,30.05,WNW,286,1.1,1.1,90,0.00,OVC,OVC,0.10,WeatherDisplay:10.37,2013-04-04 02:50:00,
2013-04-03 22:55:00,66.9,63.9,30.06,WNW,285,0.0,0.0,90,0.00,OVC,OVC,0.10,WeatherDisplay:10.37,2013-04-04 02:55:00,
2013-04-03 23:00:00,67.2,64.2,30.06,SW,234,1.0,1.0,90,0.00,OVC,OVC,0.10,WeatherDisplay:10.37,2013-04-04 03:00:00,
2013-04-03 23:05:00,67.4,64.4,30.07,SW,222,0.0,0.0,90,0.01,RA,OVC,0.11,WeatherDisplay:10.37,2013-04-04 03:05:00,
2013-04-03 23:10:00,67.5,64.5,30.07,South,178,1.1,1.1,90,0.02,RA,OVC,0.12,WeatherDisplay:10.37,2013-04-04 03:10:00,
2013-04-03 23:15:00,67.4,64.4,30.06,South,178,0.0,0.0,90,0.02,RA,OVC,0.12,WeatherDisplay:10.37,2013-04-04 03:15:00,
2013-04-03 23:20:00,67.5,64.5,30.06,South,178,0.0,0.0,90,0.02,-RA,OVC,0.12,WeatherDisplay:10.37,2013-04-04 03:20:00,
2013-04-03 23:25:00,67.4,64.4,30.05,NE,47,1.1,1.1,90,0.02,-RA,OVC,0.12,WeatherDisplay:10.37,2013-04-04 03:25:00,
2013-04-03 23:30:00,67.4,64.4,30.05,NNE,18,0.0,0.0,90,0.02,-RA,OVC,0.12,WeatherDisplay:10.37,2013-04-04 03:30:00,
2013-04-03 23:35:00,67.3,64.3,30.05,NW,324,0.0,0.0,90,0.02,-RA,OVC,0.12,WeatherDisplay:10.37,2013-04-04 03:35:00,
2013-04-03 23:40:00,67.1,64.1,30.04,ENE,58,2.3,2.3,90,0.02,-RA,OVC,0.12,WeatherDisplay:10.37,2013-04-04 03:40:00,
2013-04-03 23:45:00,66.9,63.9,30.03,West,275,0.0,0.0,90,0.02,-RA,OVC,0.12,WeatherDisplay:10.37,2013-04-04 03:45:00,
2013-04-03 23:50:00,66.8,63.8,30.03,West,275,1.1,1.1,90,0.02,SCT,OVC,0.12,WeatherDisplay:10.37,2013-04-04 03:50:00,
2013-04-03 23:55:00,66.8,63.8,30.03,West,275,0.0,0.0,90,0.02,SCT,OVC,0.12,WeatherDisplay:10.37,2013-04-04 03:55:00,